createdAt,value
2022-09-11T00:00:23.041Z,15.44
2022-09-11T00:02:53.344Z,15.37
2022-09-11T00:05:23.545Z,15.31
2022-09-11T00:07:53.674Z,15.30
2022-09-11T00:10:24.473Z,15.25
2022-09-11T00:12:54.602Z,15.26
2022-09-11T00:15:27.362Z,15.20
2022-09-11T00:17:58.848Z,15.18
2022-09-11T00:20:29.273Z,15.16
2022-09-11T00:23:02.210Z,15.15
2022-09-11T00:25:32.554Z,15.09
2022-09-11T00:28:02.808Z,15.11
2022-09-11T00:30:36.119Z,15.07
2022-09-11T00:33:06.456Z,15.09
2022-09-11T00:35:36.560Z,15.09
2022-09-11T00:38:08.771Z,15.11
2022-09-11T00:40:47.854Z,15.11
2022-09-11T00:43:19.399Z,15.12
2022-09-11T00:45:58.091Z,15.17
2022-09-11T00:48:32.628Z,15.16
2022-09-11T00:51:06.556Z,15.16
2022-09-11T00:53:40.351Z,15.17
2022-09-11T00:56:11.532Z,15.15
2022-09-11T00:58:45.674Z,15.23
2022-09-11T01:01:18.479Z,15.23
2022-09-11T01:03:48.713Z,15.24
2022-09-11T01:06:21.192Z,15.23
2022-09-11T01:08:51.535Z,15.20
2022-09-11T01:11:39.510Z,15.20
2022-09-11T01:14:15.812Z,15.17
2022-09-11T01:16:53.993Z,15.13
2022-09-11T01:19:40.105Z,15.11
2022-09-11T01:22:31.068Z,15.03
2022-09-11T01:25:11.158Z,14.97
2022-09-11T01:27:50.834Z,14.82
2022-09-11T01:30:22.813Z,14.89
2022-09-11T01:33:07.634Z,14.86
2022-09-11T01:35:49.302Z,14.78
2022-09-11T01:38:24.583Z,14.75
2022-09-11T01:40:59.407Z,14.73
2022-09-11T01:43:35.760Z,14.72
2022-09-11T01:46:10.488Z,14.72
2022-09-11T01:48:47.518Z,14.64
2022-09-11T01:51:24.077Z,14.69
2022-09-11T01:53:56.821Z,14.67
2022-09-11T01:56:30.896Z,14.68
2022-09-11T01:59:08.182Z,14.70
2022-09-11T02:01:45.240Z,14.66
2022-09-11T02:04:21.895Z,14.67
2022-09-11T02:06:57.103Z,14.70
2022-09-11T02:09:33.717Z,14.72
2022-09-11T02:12:10.242Z,14.72
2022-09-11T02:14:46.331Z,14.71
2022-09-11T02:17:22.198Z,14.64
2022-09-11T02:19:52.371Z,14.66
2022-09-11T02:22:22.774Z,14.69
2022-09-11T02:24:52.900Z,14.74
2022-09-11T02:27:27.480Z,14.68
2022-09-11T02:30:01.037Z,14.62
2022-09-11T02:32:32.037Z,14.56
2022-09-11T02:35:03.091Z,14.53
2022-09-11T02:37:45.784Z,14.47
2022-09-11T02:40:45.209Z,14.50
2022-09-11T02:43:29.424Z,14.47
2022-09-11T02:46:12.515Z,14.45
2022-09-11T02:48:52.881Z,14.47
2022-09-11T02:51:32.927Z,14.50
2022-09-11T02:54:13.960Z,14.51
2022-09-11T02:56:47.314Z,14.50
2022-09-11T02:59:21.629Z,14.47
2022-09-11T03:01:56.387Z,14.47
2022-09-11T03:04:27.357Z,14.46
2022-09-11T03:06:58.307Z,14.47
2022-09-11T03:09:28.569Z,14.44
2022-09-11T03:11:58.685Z,14.44
2022-09-11T03:14:28.874Z,14.43
2022-09-11T03:17:02.278Z,14.45
2022-09-11T03:19:32.703Z,14.43
2022-09-11T03:22:03.202Z,14.42
2022-09-11T03:24:33.392Z,14.38
2022-09-11T03:27:04.770Z,14.37
2022-09-11T03:29:35.306Z,14.37
2022-09-11T03:32:10.253Z,14.37
2022-09-11T03:34:40.443Z,14.39
2022-09-11T03:37:10.571Z,14.38
2022-09-11T03:39:40.707Z,14.39
2022-09-11T03:42:12.389Z,14.40
2022-09-11T03:44:42.537Z,14.40
2022-09-11T03:47:15.887Z,14.46
2022-09-11T03:49:46.352Z,14.51
2022-09-11T03:52:16.554Z,14.57
2022-09-11T03:54:47.782Z,14.54
2022-09-11T03:57:17.936Z,14.59
2022-09-11T03:59:48.151Z,14.62
2022-09-11T04:02:23.339Z,14.61
2022-09-11T04:04:53.522Z,14.59
2022-09-11T04:07:23.621Z,14.57
2022-09-11T04:09:54.058Z,14.60
2022-09-11T04:12:24.480Z,14.52
2022-09-11T04:14:54.749Z,14.59
2022-09-11T04:17:29.631Z,14.62
2022-09-11T04:20:00.159Z,14.61
2022-09-11T04:22:30.428Z,14.60
2022-09-11T04:25:01.197Z,14.56
2022-09-11T04:27:31.332Z,14.59
2022-09-11T04:30:01.585Z,14.59
2022-09-11T04:32:34.418Z,14.61
2022-09-11T04:35:04.652Z,14.62
2022-09-11T04:37:35.460Z,14.69
2022-09-11T04:40:06.241Z,14.74
2022-09-11T04:42:36.479Z,14.81
2022-09-11T04:45:07.470Z,14.89
2022-09-11T04:47:41.172Z,14.94
2022-09-11T04:50:11.596Z,15.01
2022-09-11T04:52:41.897Z,15.05
2022-09-11T04:55:12.291Z,15.10
2022-09-11T04:57:42.402Z,15.17
2022-09-11T05:00:14.270Z,15.22
2022-09-11T05:02:47.904Z,15.32
2022-09-11T05:05:18.226Z,15.32
2022-09-11T05:07:51.430Z,15.42
2022-09-11T05:10:21.567Z,15.54
2022-09-11T05:12:51.724Z,15.58
2022-09-11T05:15:22.069Z,15.69
2022-09-11T05:17:54.899Z,15.80
2022-09-11T05:20:25.069Z,15.87
2022-09-11T05:22:55.124Z,15.95
2022-09-11T05:25:25.439Z,15.97
2022-09-11T05:27:55.804Z,15.90
2022-09-11T05:30:26.070Z,15.89
2022-09-11T05:32:59.507Z,15.94
2022-09-11T05:35:32.352Z,16.01
2022-09-11T05:38:03.015Z,16.12
2022-09-11T05:40:33.171Z,16.16
2022-09-11T05:43:03.303Z,16.10
2022-09-11T05:45:33.507Z,16.16
2022-09-11T05:48:06.541Z,16.33
2022-09-11T05:50:36.721Z,16.44
2022-09-11T05:53:07.056Z,16.55
2022-09-11T05:55:38.664Z,16.64
2022-09-11T05:58:11.421Z,16.65
2022-09-11T06:00:41.666Z,16.66
2022-09-11T06:03:15.596Z,16.77
2022-09-11T06:05:46.174Z,16.75
2022-09-11T06:08:16.512Z,16.69
2022-09-11T06:10:49.287Z,16.84
2022-09-11T06:13:19.700Z,16.90
2022-09-11T06:15:50.449Z,17.02
2022-09-11T06:18:23.197Z,17.41
2022-09-11T06:21:00.014Z,18.26
2022-09-11T06:23:30.571Z,18.99
2022-09-11T06:26:06.348Z,19.95
2022-09-11T06:28:36.945Z,19.83
2022-09-11T06:31:08.172Z,20.02
2022-09-11T06:33:42.743Z,21.10
2022-09-11T06:36:14.661Z,21.71
2022-09-11T06:38:44.941Z,22.28
2022-09-11T06:41:20.981Z,22.76
2022-09-11T06:43:51.176Z,22.96
2022-09-11T06:46:23.720Z,23.27
2022-09-11T06:48:58.281Z,22.95
2022-09-11T06:51:28.511Z,22.57
2022-09-11T06:54:02.454Z,22.66
2022-09-11T06:56:33.386Z,22.23
2022-09-11T06:59:04.021Z,22.08
2022-09-11T07:01:34.339Z,21.50
2022-09-11T07:04:07.159Z,21.23
2022-09-11T07:06:38.735Z,21.42
2022-09-11T07:09:08.909Z,21.19
2022-09-11T07:11:43.856Z,21.26
2022-09-11T07:14:14.089Z,21.11
2022-09-11T07:16:44.333Z,21.17
2022-09-11T07:19:18.357Z,21.39
2022-09-11T07:21:48.631Z,21.16
2022-09-11T07:24:18.821Z,20.91
2022-09-11T07:26:48.965Z,21.24
2022-09-11T07:29:19.516Z,21.48
2022-09-11T07:31:50.346Z,21.44
2022-09-11T07:34:25.541Z,21.54
2022-09-11T07:36:55.696Z,21.62
2022-09-11T07:39:25.826Z,21.49
2022-09-11T07:41:55.975Z,21.60
2022-09-11T07:44:26.131Z,22.25
2022-09-11T07:46:56.333Z,22.69
2022-09-11T07:49:29.055Z,23.15
2022-09-11T07:51:59.510Z,23.65
2022-09-11T07:54:30.322Z,23.51
2022-09-11T07:57:00.712Z,23.30
2022-09-11T07:59:31.192Z,23.75
2022-09-11T08:02:01.475Z,23.59
2022-09-11T08:04:34.314Z,23.99
2022-09-11T08:07:04.592Z,24.50
2022-09-11T08:09:34.941Z,23.82
2022-09-11T08:12:06.045Z,24.34
2022-09-11T08:14:36.207Z,24.27
2022-09-11T08:17:06.469Z,24.25
2022-09-11T08:19:39.262Z,24.21
2022-09-11T08:22:09.486Z,24.42
2022-09-11T08:24:42.622Z,23.94
2022-09-11T08:27:12.789Z,24.05
2022-09-11T08:29:42.899Z,23.80
2022-09-11T08:32:13.450Z,23.85
2022-09-11T08:34:46.326Z,24.05
2022-09-11T08:37:18.322Z,24.02
2022-09-11T08:39:48.829Z,24.47
2022-09-11T08:42:20.651Z,24.46
2022-09-11T08:44:53.409Z,24.35
2022-09-11T08:47:27.845Z,24.56
2022-09-11T08:50:08.254Z,24.69
2022-09-11T08:52:39.550Z,24.53
2022-09-11T08:55:16.057Z,24.95
2022-09-11T08:57:54.742Z,24.77
2022-09-11T09:00:27.213Z,24.90
2022-09-11T09:03:32.971Z,24.52
2022-09-11T09:06:26.170Z,24.65
2022-09-11T09:09:06.177Z,24.76
2022-09-11T09:11:43.800Z,24.87
2022-09-11T09:14:30.398Z,24.83
2022-09-11T09:17:05.304Z,24.67
2022-09-11T09:19:42.269Z,24.83
2022-09-11T09:22:20.857Z,25.09
2022-09-11T09:24:53.792Z,25.11
2022-09-11T09:27:29.113Z,24.94
2022-09-11T09:30:06.876Z,24.82
2022-09-11T09:32:43.816Z,25.20
2022-09-11T09:35:20.243Z,25.60
2022-09-11T09:37:53.297Z,25.59
2022-09-11T09:40:25.851Z,25.50
2022-09-11T09:43:20.645Z,25.34
2022-09-11T09:46:01.880Z,25.72
2022-09-11T09:48:39.979Z,25.60
2022-09-11T09:51:16.016Z,25.45
2022-09-11T09:53:53.590Z,24.76
2022-09-11T09:56:26.141Z,24.69
2022-09-11T09:59:05.138Z,24.93
2022-09-11T10:01:50.278Z,25.05
2022-09-11T10:04:24.448Z,24.80
2022-09-11T10:06:56.206Z,24.47
2022-09-11T10:09:31.297Z,24.68
2022-09-11T10:12:06.513Z,24.84
2022-09-11T10:14:52.754Z,24.77
2022-09-11T10:17:24.397Z,25.06
2022-09-11T10:22:32.503Z,24.04
2022-09-11T10:25:14.507Z,23.68
2022-09-11T10:27:59.298Z,23.51
2022-09-11T10:30:36.280Z,23.74
2022-09-11T10:33:10.997Z,24.00
2022-09-11T10:35:41.251Z,24.50
2022-09-11T10:38:20.767Z,24.95
2022-09-11T10:41:22.387Z,25.27
2022-09-11T10:44:00.232Z,25.55
2022-09-11T10:46:39.122Z,25.37
2022-09-11T10:49:20.315Z,25.40
2022-09-11T10:52:05.524Z,25.17
2022-09-11T10:54:44.733Z,25.38
2022-09-11T10:57:25.121Z,25.67
2022-09-11T11:00:06.619Z,25.15
2022-09-11T11:02:39.158Z,25.58
2022-09-11T11:05:17.289Z,25.82
2022-09-11T11:08:13.298Z,25.47
2022-09-11T11:10:56.394Z,25.70
2022-09-11T11:13:45.393Z,25.50
2022-09-11T11:16:23.113Z,25.73
2022-09-11T11:19:10.979Z,25.29
2022-09-11T11:21:53.729Z,25.32
2022-09-11T11:24:38.997Z,25.12
2022-09-11T11:27:30.017Z,25.22
2022-09-11T11:30:14.671Z,25.22
2022-09-11T11:33:06.501Z,25.39
2022-09-11T11:35:47.488Z,25.41
2022-09-11T11:38:23.482Z,25.31
2022-09-11T11:40:57.534Z,25.49
2022-09-11T11:43:32.674Z,25.69
2022-09-11T11:46:18.299Z,25.99
2022-09-11T11:48:53.965Z,25.97
2022-09-11T11:51:30.047Z,25.70
2022-09-11T11:54:06.864Z,25.85
2022-09-11T11:56:42.561Z,25.61
2022-09-11T11:59:19.671Z,26.00
2022-09-11T12:02:02.414Z,25.97
2022-09-11T12:04:44.299Z,25.69
2022-09-11T12:07:21.721Z,25.85
2022-09-11T12:09:53.941Z,25.78
2022-09-11T12:12:26.445Z,25.98
2022-09-11T12:14:59.081Z,25.64
2022-09-11T12:17:34.243Z,25.89
2022-09-11T12:20:34.497Z,26.10
2022-09-11T12:23:05.860Z,26.34
2022-09-11T12:26:06.951Z,25.95
2022-09-11T12:28:38.074Z,26.19
2022-09-11T12:31:11.507Z,26.35
2022-09-11T12:34:01.442Z,26.46
2022-09-11T12:36:54.149Z,26.55
2022-09-11T12:39:36.023Z,26.52
2022-09-11T12:42:36.261Z,26.65
2022-09-11T12:45:06.884Z,26.96
2022-09-11T12:47:40.736Z,26.80
2022-09-11T12:50:21.769Z,26.85
2022-09-11T12:52:57.253Z,26.83
2022-09-11T12:55:39.587Z,27.20
2022-09-11T12:58:25.697Z,27.43
2022-09-11T13:01:09.946Z,27.02
2022-09-11T13:03:42.807Z,27.20
2022-09-11T13:06:16.202Z,26.88
2022-09-11T13:08:51.942Z,26.63
2022-09-11T13:11:43.000Z,26.38
2022-09-11T13:14:43.129Z,26.10
2022-09-11T13:17:18.807Z,26.23
2022-09-11T13:19:49.187Z,26.25
2022-09-11T13:22:31.375Z,26.33
2022-09-11T13:25:10.414Z,26.55
2022-09-11T13:27:42.684Z,26.46
2022-09-11T13:30:16.176Z,26.09
2022-09-11T13:32:48.681Z,26.21
2022-09-11T13:35:21.561Z,26.17
2022-09-11T13:38:05.317Z,26.04
2022-09-11T13:40:41.739Z,25.98
2022-09-11T13:43:18.126Z,25.95
2022-09-11T13:45:54.095Z,26.18
2022-09-11T13:48:26.116Z,26.31
2022-09-11T13:50:58.417Z,25.72
2022-09-11T13:53:32.917Z,26.10
2022-09-11T13:56:03.092Z,26.09
2022-09-11T13:58:36.523Z,26.17
2022-09-11T14:01:16.937Z,26.29
2022-09-11T14:03:49.674Z,26.29
2022-09-11T14:06:23.629Z,26.05
2022-09-11T14:09:00.186Z,25.48
2022-09-11T14:11:34.532Z,24.11
2022-09-11T14:14:12.757Z,23.59
2022-09-11T14:16:50.273Z,23.05
2022-09-11T14:19:24.221Z,22.90
2022-09-11T14:21:54.852Z,22.30
2022-09-11T14:24:35.961Z,22.07
2022-09-11T14:27:27.399Z,20.82
2022-09-11T14:29:58.382Z,20.10
2022-09-11T14:32:36.423Z,19.93
2022-09-11T14:35:11.801Z,19.97
2022-09-11T14:37:46.066Z,20.02
2022-09-11T14:40:22.466Z,19.90
2022-09-11T14:42:52.669Z,20.07
2022-09-11T14:45:26.076Z,20.35
2022-09-11T14:47:56.612Z,20.62
2022-09-11T14:50:27.035Z,20.48
2022-09-11T14:52:57.290Z,20.89
2022-09-11T14:55:30.578Z,21.12
2022-09-11T14:58:01.962Z,21.32
2022-09-11T15:00:32.475Z,21.32
2022-09-11T15:03:04.297Z,21.47
2022-09-11T15:05:34.959Z,21.58
2022-09-11T15:08:06.379Z,21.60
2022-09-11T15:10:40.077Z,21.55
2022-09-11T15:13:10.388Z,21.42
2022-09-11T15:15:40.805Z,21.22
2022-09-11T15:18:11.752Z,21.09
2022-09-11T15:20:42.109Z,20.99
2022-09-11T15:23:12.284Z,20.97
2022-09-11T15:25:45.096Z,20.90
2022-09-11T15:28:16.005Z,20.75
2022-09-11T15:30:46.265Z,20.70
2022-09-11T15:33:16.550Z,20.67
2022-09-11T15:35:47.258Z,20.59
2022-09-11T15:38:17.462Z,20.54
2022-09-11T15:40:57.058Z,20.50
2022-09-11T15:43:28.473Z,20.45
2022-09-11T15:45:58.607Z,20.33
2022-09-11T15:48:28.770Z,20.24
2022-09-11T15:51:02.752Z,20.15
2022-09-11T15:53:34.178Z,20.10
2022-09-11T15:56:09.365Z,20.04
2022-09-11T15:58:40.718Z,20.02
2022-09-11T16:01:20.073Z,19.95
2022-09-11T16:03:53.575Z,19.95
2022-09-11T16:06:25.949Z,19.88
2022-09-11T16:08:59.874Z,19.86
2022-09-11T16:11:32.917Z,19.80
2022-09-11T16:14:03.354Z,19.77
2022-09-11T16:16:33.509Z,19.70
2022-09-11T16:19:03.833Z,19.64
2022-09-11T16:21:34.055Z,19.59
2022-09-11T16:24:05.321Z,19.53
2022-09-11T16:26:38.407Z,19.51
2022-09-11T16:29:14.915Z,19.47
2022-09-11T16:31:45.402Z,19.41
2022-09-11T16:34:17.917Z,19.40
2022-09-11T16:36:49.119Z,19.30
2022-09-11T16:39:21.990Z,19.20
2022-09-11T16:41:55.757Z,19.11
2022-09-11T16:44:27.721Z,19.07
2022-09-11T16:46:58.251Z,19.00
2022-09-11T16:49:28.426Z,18.96
2022-09-11T16:51:58.671Z,18.93
2022-09-11T16:54:28.823Z,18.91
2022-09-11T16:57:01.898Z,18.91
2022-09-11T16:59:32.257Z,18.78
2022-09-11T17:02:02.532Z,18.80
2022-09-11T17:04:32.832Z,18.77
2022-09-11T17:07:03.076Z,18.80
2022-09-11T17:09:33.355Z,18.78
2022-09-11T17:12:06.380Z,18.73
2022-09-11T17:14:36.702Z,18.68
2022-09-11T17:17:07.141Z,18.63
2022-09-11T17:19:37.318Z,18.57
2022-09-11T17:22:08.607Z,18.48
2022-09-11T17:24:39.755Z,18.50
2022-09-11T17:27:12.566Z,18.49
2022-09-11T17:29:44.753Z,18.45
2022-09-11T17:32:28.644Z,18.44
2022-09-11T17:35:00.273Z,18.34
2022-09-11T17:37:30.768Z,18.33
2022-09-11T17:40:02.283Z,18.27
2022-09-11T17:42:35.458Z,18.21
2022-09-11T17:45:07.827Z,18.16
2022-09-11T17:47:38.053Z,18.09
2022-09-11T17:50:09.507Z,17.99
2022-09-11T17:52:40.215Z,17.93
2022-09-11T17:55:11.353Z,17.89
2022-09-11T17:57:45.577Z,17.85
2022-09-11T18:00:16.941Z,17.80
2022-09-11T18:02:50.172Z,17.79
2022-09-11T18:05:21.273Z,17.77
2022-09-11T18:07:51.510Z,17.76
2022-09-11T18:10:22.641Z,17.74
2022-09-11T18:12:55.462Z,17.71
2022-09-11T18:15:26.033Z,17.62
2022-09-11T18:17:56.771Z,17.58
2022-09-11T18:20:27.871Z,17.53
2022-09-11T18:22:59.765Z,17.44
2022-09-11T18:25:30.320Z,17.40
2022-09-11T18:28:03.817Z,17.33
2022-09-11T18:30:34.436Z,17.31
2022-09-11T18:33:08.896Z,17.31
2022-09-11T18:35:42.113Z,17.30
2022-09-11T18:38:12.977Z,17.30
2022-09-11T18:40:43.266Z,17.32
2022-09-11T18:43:18.378Z,17.37
2022-09-11T18:45:49.016Z,17.39
2022-09-11T18:48:22.163Z,17.42
2022-09-11T18:50:54.056Z,17.47
2022-09-11T18:53:26.120Z,17.46
2022-09-11T18:56:02.011Z,17.49
2022-09-11T18:58:36.436Z,17.46
2022-09-11T19:01:09.553Z,17.49
2022-09-11T19:03:42.298Z,17.51
2022-09-11T19:06:15.182Z,17.53
2022-09-11T19:08:47.289Z,17.51
2022-09-11T19:11:21.089Z,17.52
2022-09-11T19:13:56.824Z,17.50
2022-09-11T19:16:27.176Z,17.46
2022-09-11T19:18:57.491Z,17.48
2022-09-11T19:21:28.484Z,17.45
2022-09-11T19:24:00.851Z,17.42
2022-09-11T19:26:33.153Z,17.37
2022-09-11T19:29:06.362Z,17.26
2022-09-11T19:31:36.705Z,17.21
2022-09-11T19:34:06.983Z,17.19
2022-09-11T19:36:41.202Z,17.18
2022-09-11T19:39:11.405Z,17.16
2022-09-11T19:41:45.281Z,17.10
2022-09-11T19:44:18.346Z,17.07
2022-09-11T19:46:50.119Z,17.00
2022-09-11T19:49:20.631Z,16.96
2022-09-11T19:51:50.789Z,16.92
2022-09-11T19:54:21.866Z,16.90
2022-09-11T19:56:52.111Z,16.91
2022-09-11T19:59:24.827Z,16.87
2022-09-11T20:01:55.167Z,16.84
2022-09-11T20:04:25.486Z,16.84
2022-09-11T20:06:55.678Z,16.81
2022-09-11T20:09:33.057Z,16.80
2022-09-11T20:12:05.392Z,16.82
2022-09-11T20:14:42.294Z,16.78
2022-09-11T20:17:13.288Z,16.76
2022-09-11T20:19:44.905Z,16.73
2022-09-11T20:22:15.148Z,16.69
2022-09-11T20:24:45.344Z,16.66
2022-09-11T20:27:15.516Z,16.58
2022-09-11T20:29:48.250Z,16.55
2022-09-11T20:32:19.437Z,16.55
2022-09-11T20:34:49.618Z,16.49
2022-09-11T20:37:20.095Z,16.48
2022-09-11T20:39:50.619Z,16.48
2022-09-11T20:42:20.958Z,16.47
2022-09-11T20:44:53.612Z,16.43
2022-09-11T20:47:23.798Z,16.37
2022-09-11T20:49:53.987Z,16.33
2022-09-11T20:52:24.164Z,16.25
2022-09-11T20:54:54.576Z,16.20
2022-09-11T20:57:27.873Z,16.16
2022-09-11T21:00:00.966Z,16.11
2022-09-11T21:02:31.191Z,16.11
2022-09-11T21:05:05.096Z,16.06
2022-09-11T21:07:35.475Z,16.06
2022-09-11T21:10:05.970Z,16.01
2022-09-11T21:12:36.796Z,15.99
2022-09-11T21:15:10.767Z,15.98
2022-09-11T21:17:40.938Z,15.98
2022-09-11T21:20:12.687Z,15.94
2022-09-11T21:22:42.870Z,15.84
2022-09-11T21:25:13.084Z,15.87
2022-09-11T21:27:43.225Z,15.84
2022-09-11T21:30:16.746Z,15.86
2022-09-11T21:32:46.819Z,15.85
2022-09-11T21:35:17.153Z,15.84
2022-09-11T21:37:48.586Z,15.83
2022-09-11T21:40:18.764Z,15.81
2022-09-11T21:42:52.002Z,15.82
2022-09-11T21:45:24.666Z,15.86
2022-09-11T21:47:55.136Z,15.85
2022-09-11T21:50:25.328Z,15.84
2022-09-11T21:52:56.220Z,15.89
2022-09-11T21:55:28.186Z,15.99
2022-09-11T21:57:58.687Z,16.04
2022-09-11T22:00:31.419Z,16.00
2022-09-11T22:03:01.784Z,15.96
2022-09-11T22:05:32.543Z,15.96
2022-09-11T22:08:02.829Z,15.93
2022-09-11T22:10:32.984Z,15.96
2022-09-11T22:13:03.641Z,15.93
2022-09-11T22:15:36.391Z,15.92
2022-09-11T22:18:06.802Z,15.95
2022-09-11T22:20:37.009Z,15.90
2022-09-11T22:23:10.700Z,15.87
2022-09-11T22:25:41.076Z,15.87
2022-09-11T22:28:11.544Z,15.82
2022-09-11T22:30:48.757Z,15.91
2022-09-11T22:33:18.909Z,15.87
2022-09-11T22:35:49.650Z,15.84
2022-09-11T22:38:20.156Z,15.84
2022-09-11T22:40:55.457Z,15.80
2022-09-11T22:43:25.655Z,15.79
2022-09-11T22:45:58.477Z,15.85
2022-09-11T22:48:28.887Z,15.82
2022-09-11T22:50:59.614Z,15.75
2022-09-11T22:53:30.566Z,15.70
2022-09-11T22:56:00.725Z,15.63
2022-09-11T22:58:31.855Z,15.64
2022-09-11T23:01:06.038Z,15.63
2022-09-11T23:03:39.156Z,15.66
2022-09-11T23:06:21.943Z,15.63
2022-09-11T23:08:52.748Z,15.63
2022-09-11T23:11:23.256Z,15.63
2022-09-11T23:13:53.872Z,15.63
2022-09-11T23:16:28.908Z,15.58
2022-09-11T23:19:00.738Z,15.60
2022-09-11T23:21:33.098Z,15.64
2022-09-11T23:24:03.593Z,15.55
2022-09-11T23:26:33.882Z,15.45
2022-09-11T23:29:04.277Z,15.41
2022-09-11T23:31:37.659Z,15.34
2022-09-11T23:34:11.147Z,15.32
2022-09-11T23:36:41.320Z,15.29
2022-09-11T23:39:14.571Z,15.25
2022-09-11T23:41:44.731Z,15.25
2022-09-11T23:44:14.862Z,15.25
2022-09-11T23:46:47.817Z,15.25
2022-09-11T23:49:17.977Z,15.27
2022-09-11T23:51:50.390Z,15.26
2022-09-11T23:54:20.532Z,15.25
2022-09-11T23:56:50.669Z,15.22
2022-09-11T23:59:21.112Z,15.16
